Time;durP1;ratioP1;P1;durP2;ratioP2;P2;SDS_P1;SDS_P2;PMS_P1;PMS_P2;Temp;Humidity;BMP_temperature;BMP_pressure;BME280_temperature;BME280_humidity;BME280_pressure;Samples;Min_cycle;Max_cycle;Signal;HPM_P1;HPM_P2
2023/04/01 06:10:14;;;;;;;16.37;9.17;;;9.10;99.90;;;;;;5264287;24;20285;-57
2023/04/01 06:12:52;;;;;;;19.07;9.23;;;9.10;99.90;;;;;;4865258;29;20223;-56
2023/04/01 06:15:43;;;;;;;18.03;8.80;;;9.10;99.90;;;;;;4871166;29;20227;-57
2023/04/01 06:18:59;;;;;;;17.20;9.37;;;9.10;99.90;;;;;;4864174;29;20253;-57
2023/04/01 06:21:49;;;;;;;17.13;9.27;;;9.10;99.90;;;;;;4861524;29;20226;-55
2023/04/01 06:24:29;;;;;;;18.87;9.63;;;9.10;99.90;;;;;;4869818;29;20568;-56
2023/04/01 06:27:08;;;;;;;19.80;8.63;;;9.10;99.90;;;;;;4875079;29;20290;-56
2023/04/01 06:29:56;;;;;;;15.63;8.87;;;9.10;99.90;;;;;;4874543;29;20697;-56
2023/04/01 06:32:39;;;;;;;19.40;9.10;;;9.10;99.90;;;;;;4877060;29;20218;-57
2023/04/01 06:35:32;;;;;;;11.43;7.53;;;9.10;99.90;;;;;;4875303;29;20230;-56
2023/04/01 06:38:17;;;;;;;15.43;8.03;;;9.10;99.90;;;;;;4868915;29;20731;-58
2023/04/01 06:41:17;;;;;;;10.77;6.70;;;9.20;99.90;;;;;;4874032;29;20199;-56
2023/04/01 06:43:59;;;;;;;6.53;5.67;;;9.20;99.90;;;;;;4876692;29;20282;-57
2023/04/01 06:46:40;;;;;;;7.03;5.60;;;9.20;99.90;;;;;;4852288;29;20207;-57
2023/04/01 06:49:30;;;;;;;6.07;4.80;;;9.30;99.90;;;;;;4850512;29;20266;-56
2023/04/01 06:52:06;;;;;;;4.33;3.90;;;9.30;99.90;;;;;;4858788;29;20254;-57
2023/04/01 06:54:40;;;;;;;4.03;3.70;;;9.20;99.90;;;;;;4858993;29;20223;-54
2023/04/01 06:57:23;;;;;;;6.77;4.20;;;9.20;99.90;;;;;;4852373;29;20240;-57
2023/04/01 06:59:55;;;;;;;4.30;4.00;;;9.20;99.90;;;;;;4854079;29;20578;-57
2023/04/01 07:02:29;;;;;;;2.80;2.70;;;9.30;99.90;;;;;;4849335;29;20227;-56
2023/04/01 07:05:00;;;;;;;2.93;2.67;;;9.30;99.90;;;;;;4856061;29;20248;-57
2023/04/01 07:07:34;;;;;;;2.70;2.20;;;9.40;99.90;;;;;;4860620;29;20241;-57
2023/04/01 07:10:10;;;;;;;3.73;1.90;;;9.40;99.90;;;;;;4859093;29;20560;-57
2023/04/01 07:12:45;;;;;;;5.33;3.10;;;9.40;99.90;;;;;;4862805;29;20227;-57
2023/04/01 07:15:20;;;;;;;3.10;2.90;;;9.50;99.90;;;;;;4850476;29;20246;-57
2023/04/01 07:17:53;;;;;;;3.13;2.93;;;9.40;99.90;;;;;;4861714;29;20218;-58
2023/04/01 07:20:26;;;;;;;3.10;3.00;;;9.40;99.90;;;;;;4857460;29;20219;-57
2023/04/01 07:22:58;;;;;;;3.63;3.40;;;9.50;99.90;;;;;;4858118;29;20283;-56
2023/04/01 07:25:29;;;;;;;4.10;3.70;;;9.50;99.90;;;;;;4862320;29;20199;-56
2023/04/01 07:28:03;;;;;;;3.70;3.40;;;9.50;99.90;;;;;;4856617;29;20455;-58
2023/04/01 07:30:45;;;;;;;3.10;2.87;;;9.50;99.90;;;;;;4860976;29;20223;-58
2023/04/01 07:33:17;;;;;;;2.37;2.20;;;9.50;99.90;;;;;;4854377;29;20579;-56
2023/04/01 07:35:52;;;;;;;2.77;2.57;;;9.60;99.90;;;;;;4858740;29;20227;-57
2023/04/01 07:38:31;;;;;;;2.40;2.30;;;9.60;99.90;;;;;;4855616;29;20234;-56
2023/04/01 07:41:10;;;;;;;2.60;2.53;;;9.60;99.90;;;;;;4860309;29;20590;-57
2023/04/01 07:43:53;;;;;;;2.57;2.47;;;9.60;99.90;;;;;;4861818;29;20640;-56
2023/04/01 07:46:42;;;;;;;2.90;2.80;;;9.70;99.90;;;;;;4859099;29;20612;-57
2023/04/01 07:49:16;;;;;;;2.77;2.67;;;9.80;99.90;;;;;;4852792;29;20231;-57
2023/04/01 07:51:53;;;;;;;5.87;3.70;;;9.90;99.90;;;;;;4858420;29;20277;-57
2023/04/01 07:54:27;;;;;;;4.77;2.73;;;9.90;99.90;;;;;;4855913;29;20639;-57
2023/04/01 07:57:02;;;;;;;3.00;2.87;;;9.80;99.90;;;;;;4857079;29;20223;-57
2023/04/01 07:59:41;;;;;;;3.23;2.93;;;9.80;99.90;;;;;;4859759;29;20234;-57
2023/04/01 08:02:22;;;;;;;4.90;3.10;;;9.80;99.90;;;;;;4852685;29;20239;-57
2023/04/01 08:05:02;;;;;;;3.20;2.37;;;9.80;99.90;;;;;;4855683;29;20203;-57
2023/04/01 08:07:41;;;;;;;3.80;3.50;;;9.80;99.90;;;;;;4835066;29;20203;-57
2023/04/01 08:10:19;;;;;;;3.23;3.03;;;9.90;99.90;;;;;;4852732;29;20234;-57
2023/04/01 08:12:58;;;;;;;4.37;3.90;;;9.90;99.90;;;;;;4859484;29;20223;-57
2023/04/01 08:15:30;;;;;;;3.63;3.23;;;9.90;99.90;;;;;;4856609;29;20235;-57
2023/04/01 08:18:10;;;;;;;3.43;3.33;;;9.90;99.90;;;;;;4852963;29;20231;-57
2023/04/01 08:20:43;;;;;;;3.83;3.60;;;9.80;99.90;;;;;;4852401;29;20232;-57
2023/04/01 08:23:15;;;;;;;3.40;3.20;;;9.80;99.90;;;;;;4853971;29;20288;-57
2023/04/01 08:25:48;;;;;;;3.10;2.90;;;9.80;99.90;;;;;;4852402;29;20196;-57
2023/04/01 08:28:22;;;;;;;5.63;4.43;;;9.90;99.90;;;;;;4857430;29;20200;-57
2023/04/01 08:30:56;;;;;;;3.17;2.93;;;9.90;99.90;;;;;;4851419;29;20705;-57
2023/04/01 08:33:28;;;;;;;3.97;3.20;;;9.90;99.90;;;;;;4861488;29;20235;-57
2023/04/01 08:36:03;;;;;;;3.80;3.50;;;9.90;99.90;;;;;;4860482;29;20635;-57
2023/04/01 08:38:36;;;;;;;3.33;3.03;;;10.00;99.90;;;;;;4857974;29;20785;-57
2023/04/01 08:41:23;;;;;;;3.73;3.37;;;10.10;99.90;;;;;;4857413;29;20227;-57
2023/04/01 08:44:33;;;;;;;3.00;2.90;;;10.10;99.90;;;;;;4854729;29;20272;-57
2023/04/01 08:47:35;;;;;;;3.00;2.80;;;10.10;99.90;;;;;;4804798;29;20324;-58
2023/04/01 08:50:35;;;;;;;2.90;2.70;;;10.30;99.90;;;;;;4843733;29;20589;-56
2023/04/01 08:53:12;;;;;;;3.07;2.87;;;10.30;99.90;;;;;;4837380;29;20232;-56
2023/04/01 08:55:48;;;;;;;3.07;2.70;;;10.40;99.90;;;;;;4852011;29;20651;-56
2023/04/01 08:58:48;;;;;;;3.63;3.43;;;10.40;99.90;;;;;;4857665;29;20195;-57
2023/04/01 09:01:32;;;;;;;3.07;2.87;;;10.30;99.90;;;;;;4859068;29;20219;-57
2023/04/01 09:04:23;;;;;;;2.87;2.67;;;10.30;99.90;;;;;;4855824;29;20672;-57
2023/04/01 09:07:10;;;;;;;2.97;2.67;;;10.30;99.90;;;;;;4859113;29;20234;-57
2023/04/01 09:10:05;;;;;;;4.37;2.70;;;10.30;99.90;;;;;;4859263;29;20594;-57
2023/04/01 09:12:55;;;;;;;3.50;3.20;;;10.30;99.90;;;;;;4862134;29;20271;-57
2023/04/01 09:15:43;;;;;;;6.17;2.83;;;10.30;99.90;;;;;;4857465;29;20224;-57
2023/04/01 09:18:31;;;;;;;6.13;2.63;;;10.30;99.90;;;;;;4850620;29;20233;-57
2023/04/01 09:21:15;;;;;;;6.07;2.67;;;10.20;99.90;;;;;;4859765;29;20686;-57
2023/04/01 09:23:57;;;;;;;2.93;2.70;;;10.10;99.90;;;;;;4858072;29;20227;-57
2023/04/01 09:26:41;;;;;;;2.97;2.67;;;10.10;99.90;;;;;;4859245;29;20219;-57
2023/04/01 09:29:23;;;;;;;2.73;2.23;;;10.10;99.90;;;;;;4859431;29;20235;-57
2023/04/01 09:32:14;;;;;;;6.07;2.83;;;10.10;99.90;;;;;;4845487;29;20259;-56
2023/04/01 09:34:56;;;;;;;2.80;2.60;;;10.20;99.90;;;;;;4858696;29;20211;-56
2023/04/01 09:37:36;;;;;;;3.23;2.40;;;10.40;99.90;;;;;;4855844;29;20203;-57
2023/04/01 09:40:22;;;;;;;2.40;2.13;;;10.40;99.90;;;;;;4856271;29;20295;-57
2023/04/01 09:43:23;;;;;;;3.17;2.07;;;10.40;99.90;;;;;;4854740;29;20742;-57
2023/04/01 15:51:02;;;;;;;1.87;1.80;;;10.20;99.90;;;;;;5656777;23;20536;-57
2023/04/01 15:54:03;;;;;;;2.20;2.03;;;10.20;99.90;;;;;;4829991;29;20308;-57
2023/04/01 15:56:49;;;;;;;2.93;2.07;;;10.20;99.90;;;;;;4835074;29;20304;-57
2023/04/01 15:59:31;;;;;;;2.43;1.63;;;10.20;99.90;;;;;;4836160;29;20355;-58
2023/04/01 16:02:08;;;;;;;2.13;1.80;;;10.20;99.90;;;;;;4831436;29;20319;-58
2023/04/01 16:04:48;;;;;;;2.17;2.07;;;10.20;99.90;;;;;;4832050;29;20299;-57
2023/04/01 16:07:44;;;;;;;1.90;1.70;;;10.10;99.90;;;;;;4836894;29;20196;-57
2023/04/01 16:10:31;;;;;;;1.87;1.70;;;10.10;99.90;;;;;;4834298;29;20285;-58
2023/04/01 16:13:16;;;;;;;2.10;1.90;;;10.00;99.90;;;;;;4837444;29;20224;-57
2023/04/01 16:15:52;;;;;;;3.50;3.20;;;10.00;99.90;;;;;;4834103;29;20270;-57
2023/04/01 16:18:46;;;;;;;2.47;2.27;;;10.00;99.90;;;;;;4828749;29;20230;-58
2023/04/01 16:21:28;;;;;;;2.13;2.03;;;10.00;99.90;;;;;;4833266;29;20229;-58
2023/04/01 16:24:05;;;;;;;4.27;2.90;;;10.00;99.90;;;;;;4830196;29;20216;-57
2023/04/01 16:26:39;;;;;;;2.97;2.60;;;10.00;99.90;;;;;;4834121;29;20229;-57
2023/04/01 16:29:17;;;;;;;3.57;2.40;;;9.90;99.90;;;;;;4833475;29;20243;-57
2023/04/01 16:31:50;;;;;;;2.10;2.00;;;9.90;99.90;;;;;;4837069;29;20700;-57
2023/04/01 16:34:25;;;;;;;2.60;2.23;;;10.00;99.90;;;;;;4836651;29;20327;-57
2023/04/01 16:37:00;;;;;;;2.37;1.80;;;9.90;99.90;;;;;;4837599;29;20299;-57
2023/04/01 16:39:40;;;;;;;2.47;1.73;;;9.90;99.90;;;;;;4837897;29;20231;-58
2023/04/01 16:42:25;;;;;;;1.90;1.80;;;9.90;99.90;;;;;;4841113;29;20315;-57
2023/04/01 16:44:57;;;;;;;2.00;1.90;;;9.90;99.90;;;;;;4834173;29;20224;-58
2023/04/01 16:47:31;;;;;;;3.23;2.30;;;9.90;99.90;;;;;;4838407;29;20699;-56
2023/04/01 16:50:06;;;;;;;2.53;2.40;;;9.90;99.90;;;;;;4843616;29;20652;-57
2023/04/01 16:52:49;;;;;;;4.97;2.70;;;9.90;99.90;;;;;;4842383;29;20236;-57
2023/04/01 16:55:21;;;;;;;2.77;2.50;;;9.80;99.90;;;;;;4842776;29;20601;-57
2023/04/01 16:57:52;;;;;;;6.37;3.53;;;9.70;99.90;;;;;;4841352;29;20293;-57
2023/04/01 17:00:27;;;;;;;3.60;2.90;;;9.70;99.90;;;;;;4836028;29;20281;-57
2023/04/01 17:03:05;;;;;;;3.30;3.10;;;9.70;99.90;;;;;;4833302;29;20224;-57
2023/04/01 17:05:53;;;;;;;4.10;2.87;;;9.70;99.90;;;;;;4842316;29;20223;-57
2023/04/01 17:08:34;;;;;;;2.83;2.60;;;9.70;99.90;;;;;;4836709;29;20224;-57
2023/04/01 17:11:16;;;;;;;3.47;2.57;;;9.60;99.90;;;;;;4842771;29;20291;-57
2023/04/01 17:13:54;;;;;;;2.30;2.07;;;9.60;99.90;;;;;;4842328;29;20220;-58
2023/04/01 17:16:36;;;;;;;5.57;3.20;;;9.50;99.90;;;;;;4838267;29;20248;-57
2023/04/01 17:19:16;;;;;;;3.50;3.13;;;9.50;99.90;;;;;;4828471;29;20641;-57
2023/04/01 17:22:03;;;;;;;4.00;3.70;;;9.50;99.90;;;;;;4840668;29;20644;-57
2023/04/01 17:24:48;;;;;;;3.97;3.37;;;9.50;99.90;;;;;;4832985;29;20255;-57
2023/04/01 17:27:31;;;;;;;4.40;3.53;;;9.50;99.90;;;;;;4842772;29;20262;-57
2023/04/01 17:30:25;;;;;;;4.77;3.20;;;9.40;99.90;;;;;;4830355;29;20279;-57
2023/04/01 17:33:06;;;;;;;3.27;3.17;;;9.40;99.90;;;;;;4842361;29;20683;-59
2023/04/01 17:35:38;;;;;;;3.13;3.00;;;9.40;99.90;;;;;;4834429;29;20242;-57
2023/04/01 17:38:20;;;;;;;3.87;3.57;;;9.40;99.90;;;;;;4837369;29;20239;-57
2023/04/01 17:41:02;;;;;;;4.53;3.80;;;9.40;99.90;;;;;;4836438;29;20200;-57
2023/04/01 17:43:43;;;;;;;3.50;3.30;;;9.30;99.90;;;;;;4834549;29;20289;-57
2023/04/01 17:46:25;;;;;;;3.57;3.23;;;9.30;99.90;;;;;;4840095;29;20250;-57
2023/04/01 17:49:02;;;;;;;3.43;3.13;;;9.30;99.90;;;;;;4841436;29;20272;-57
2023/04/01 17:51:37;;;;;;;3.53;3.30;;;9.30;99.90;;;;;;4839968;29;20267;-57
2023/04/01 17:54:21;;;;;;;6.37;3.13;;;9.30;99.90;;;;;;4832633;29;20223;-57
2023/04/01 17:57:03;;;;;;;3.33;2.77;;;9.20;99.90;;;;;;4838144;29;20231;-57
2023/04/01 17:59:37;;;;;;;3.30;3.00;;;9.20;99.90;;;;;;4835838;29;20621;-57
2023/04/01 18:02:19;;;;;;;3.27;3.10;;;9.20;99.90;;;;;;4838712;29;20224;-57
2023/04/01 18:05:16;;;;;;;5.67;3.50;;;9.10;99.90;;;;;;4839026;29;20715;-57
2023/04/01 18:08:11;;;;;;;3.53;2.90;;;9.10;99.90;;;;;;4838232;29;20192;-57
2023/04/01 18:10:52;;;;;;;3.27;2.90;;;9.00;99.90;;;;;;4835859;29;20216;-57
2023/04/01 18:13:45;;;;;;;4.00;3.63;;;9.00;99.90;;;;;;4839973;29;20727;-57
2023/04/01 18:16:32;;;;;;;4.23;3.70;;;9.00;99.90;;;;;;4833075;29;20232;-57
2023/04/01 18:19:08;;;;;;;4.50;4.10;;;9.00;99.90;;;;;;4838801;29;20231;-57
2023/04/01 18:21:46;;;;;;;4.80;4.33;;;9.00;99.90;;;;;;4838645;29;20285;-57
2023/04/01 18:24:24;;;;;;;4.63;4.23;;;8.90;99.90;;;;;;4840064;29;20636;-58
2023/04/01 18:27:04;;;;;;;6.43;4.70;;;8.90;99.90;;;;;;4833972;29;20223;-57
2023/04/01 18:29:45;;;;;;;6.13;5.10;;;8.90;99.90;;;;;;4835843;29;20281;-58
2023/04/01 18:32:27;;;;;;;5.57;5.07;;;8.90;99.90;;;;;;4833376;29;20231;-57
2023/04/01 18:35:02;;;;;;;8.90;5.57;;;8.90;99.90;;;;;;4836616;29;20232;-57
2023/04/01 18:37:35;;;;;;;10.50;6.70;;;8.90;99.90;;;;;;4833760;29;20204;-57
2023/04/01 18:40:16;;;;;;;8.77;5.47;;;8.80;99.90;;;;;;4841001;29;20228;-56
2023/04/01 18:42:56;;;;;;;9.20;6.20;;;8.90;99.90;;;;;;4840651;29;20552;-57
2023/04/01 18:45:30;;;;;;;8.33;5.73;;;8.90;99.90;;;;;;4832946;29;20255;-57
2023/04/01 18:48:11;;;;;;;8.57;6.77;;;8.80;99.90;;;;;;4836968;29;20255;-57
2023/04/01 18:50:44;;;;;;;10.93;6.43;;;8.80;99.90;;;;;;4837948;29;20270;-57
2023/04/01 18:53:23;;;;;;;11.40;7.17;;;8.80;99.90;;;;;;4841049;29;20276;-57
2023/04/01 18:55:55;;;;;;;17.33;7.60;;;8.80;99.90;;;;;;4836061;29;20296;-57
2023/04/01 18:58:34;;;;;;;17.17;8.27;;;8.80;99.90;;;;;;4839435;29;20196;-57
2023/04/01 19:01:15;;;;;;;17.70;9.30;;;8.80;99.90;;;;;;4830986;29;20267;-57
2023/04/01 19:03:54;;;;;;;19.17;9.50;;;8.80;99.90;;;;;;4841156;29;20228;-57
2023/04/01 19:06:28;;;;;;;20.40;9.97;;;8.80;99.90;;;;;;4834953;29;20627;-57
2023/04/01 19:09:13;;;;;;;20.03;10.53;;;8.80;99.90;;;;;;4833477;29;20224;-57
2023/04/01 19:11:50;;;;;;;24.27;11.63;;;8.80;99.90;;;;;;4837059;29;20239;-57
2023/04/01 19:14:25;;;;;;;26.17;12.00;;;8.80;99.90;;;;;;4838674;29;20276;-56
2023/04/01 19:17:01;;;;;;;28.43;11.47;;;8.80;99.90;;;;;;4839929;29;20624;-57
2023/04/01 19:19:52;;;;;;;25.70;11.53;;;8.80;99.90;;;;;;4841107;29;20203;-57
2023/04/01 19:22:40;;;;;;;21.57;11.00;;;8.70;99.90;;;;;;4834574;29;20255;-56
2023/04/01 19:25:24;;;;;;;25.87;12.30;;;8.80;99.90;;;;;;4834649;29;20278;-57
2023/04/01 19:27:54;;;;;;;28.77;13.13;;;8.70;99.90;;;;;;4831449;29;20249;-57
2023/04/01 19:30:34;;;;;;;24.97;12.90;;;8.70;99.90;;;;;;4841236;29;20224;-57
2023/04/01 19:33:18;;;;;;;26.97;12.93;;;8.70;99.90;;;;;;4837422;29;20710;-57
2023/04/01 19:35:55;;;;;;;27.70;12.70;;;8.70;99.90;;;;;;4840942;29;20223;-57
2023/04/01 19:38:34;;;;;;;24.97;13.13;;;8.70;99.90;;;;;;4833315;29;20231;-57
2023/04/01 19:41:13;;;;;;;32.93;13.43;;;8.70;99.90;;;;;;4837651;29;20319;-57
